Time;durP1;ratioP1;P1;durP2;ratioP2;P2;SDS_P1;SDS_P2;PMS_P1;PMS_P2;Temp;Humidity;BMP_temperature;BMP_pressure;BME280_temperature;BME280_humidity;BME280_pressure;Samples;Min_cycle;Max_cycle;Signal;HPM_P1;HPM_P2
2021/03/13 00:01:10;;;;;;;2.47;0.50;;;;;;;5.39;74.25;99472.25;4991885;28;20062;-72
2021/03/13 00:03:36;;;;;;;1.80;0.63;;;;;;;5.37;74.31;99469.66;4991628;28;20042;-72
2021/03/13 00:06:02;;;;;;;1.25;0.30;;;;;;;5.34;74.17;99458.31;4988828;28;20084;-72
2021/03/13 00:08:27;;;;;;;1.10;0.40;;;;;;;5.34;74.00;99476.63;4991977;28;20507;-72
2021/03/13 00:10:53;;;;;;;2.00;0.40;;;;;;;5.30;73.82;99456.59;4991856;28;20492;-72
2021/03/13 00:13:19;;;;;;;2.88;0.60;;;;;;;5.27;73.93;99458.31;4991810;28;20089;-72
2021/03/13 00:15:45;;;;;;;1.35;0.40;;;;;;;5.30;73.07;99461.81;4972631;28;20035;-72
2021/03/13 00:18:12;;;;;;;2.17;0.40;;;;;;;5.32;72.91;99455.72;4978308;28;20673;-72
2021/03/13 00:20:40;;;;;;;4.03;0.40;;;;;;;5.33;72.98;99460.06;4981185;28;20130;-72
2021/03/13 00:23:06;;;;;;;1.10;0.38;;;;;;;5.36;73.07;99456.56;4980681;28;20039;-71
2021/03/13 00:25:33;;;;;;;0.88;0.20;;;;;;;5.37;72.92;99459.19;4982225;28;20117;-72
2021/03/13 00:27:59;;;;;;;1.05;0.30;;;;;;;5.35;73.06;99454.84;4991705;28;20124;-72
2021/03/13 00:30:34;;;;;;;1.48;0.50;;;;;;;5.36;73.09;99461.78;4991641;28;20117;-72
2021/03/13 00:33:06;;;;;;;0.50;0.20;;;;;;;5.35;73.31;99460.06;4991687;28;20034;-71
2021/03/13 00:35:32;;;;;;;0.98;0.30;;;;;;;5.33;72.97;99459.19;4991518;28;20482;-72
2021/03/13 00:37:59;;;;;;;2.60;0.75;;;;;;;5.35;73.03;99457.44;4991609;28;20045;-72
2021/03/13 00:40:26;;;;;;;1.63;0.30;;;;;;;5.38;72.38;99453.06;4991623;28;20045;-72
2021/03/13 00:42:53;;;;;;;2.45;0.30;;;;;;;5.40;72.28;99466.16;4991507;28;20043;-71
2021/03/13 00:45:22;;;;;;;6.35;0.40;;;;;;;5.39;72.42;99467.00;4991333;28;20080;-72
2021/03/13 00:47:48;;;;;;;0.57;0.22;;;;;;;5.38;72.23;99466.16;4982315;28;20091;-72
2021/03/13 00:50:15;;;;;;;1.50;0.30;;;;;;;5.40;71.94;99466.16;4982227;28;20030;-72
2021/03/13 00:52:42;;;;;;;1.77;0.35;;;;;;;5.44;71.32;99465.25;4998601;28;20109;-72
2021/03/13 00:55:09;;;;;;;1.95;0.68;;;;;;;5.42;71.53;99462.66;4991210;28;20034;-72
2021/03/13 00:57:36;;;;;;;1.80;0.40;;;;;;;5.48;71.49;99472.25;4971112;28;20119;-72
2021/03/13 01:00:04;;;;;;;2.38;0.30;;;;;;;5.45;71.66;99472.25;4987116;28;20047;-73
2021/03/13 01:02:31;;;;;;;1.65;0.35;;;;;;;5.45;71.69;99467.88;4982200;28;20046;-74
2021/03/13 01:04:56;;;;;;;1.63;0.30;;;;;;;5.52;71.44;99468.72;4991328;28;20408;-75
2021/03/13 01:07:22;;;;;;;2.22;0.77;;;;;;;5.45;71.75;99467.03;4981898;28;20037;-74
2021/03/13 01:09:49;;;;;;;1.85;0.60;;;;;;;5.44;71.63;99466.13;4982114;28;20110;-74
2021/03/13 01:12:15;;;;;;;1.52;0.38;;;;;;;5.48;71.71;99474.84;4991255;28;20066;-74
2021/03/13 01:14:41;;;;;;;1.50;0.47;;;;;;;5.51;71.94;99467.00;4985547;28;20487;-74
2021/03/13 01:17:07;;;;;;;2.58;0.50;;;;;;;5.45;72.01;99464.41;4985230;28;20519;-74
2021/03/13 01:19:32;;;;;;;1.95;0.60;;;;;;;5.46;71.71;99460.91;4994847;28;20038;-75
2021/03/13 01:21:58;;;;;;;1.73;0.50;;;;;;;5.48;71.69;99461.78;4985492;28;20113;-75
2021/03/13 01:24:23;;;;;;;3.05;0.90;;;;;;;5.39;72.31;99451.31;4994697;28;20038;-75
2021/03/13 01:26:49;;;;;;;3.35;0.80;;;;;;;5.40;72.71;99459.19;4984940;28;20027;-75
2021/03/13 01:29:14;;;;;;;2.28;0.50;;;;;;;5.39;72.31;99456.56;4994574;28;20037;-75
2021/03/13 01:31:49;;;;;;;2.17;0.90;;;;;;;5.42;72.19;99456.53;4994621;28;20030;-75
2021/03/13 01:34:19;;;;;;;3.90;1.23;;;;;;;5.47;72.24;99454.78;4985521;28;20060;-75
2021/03/13 01:36:51;;;;;;;4.15;1.02;;;;;;;5.48;71.95;99449.56;4984793;28;20161;-75
2021/03/13 01:39:17;;;;;;;4.78;1.00;;;;;;;5.57;71.75;99438.19;4994242;28;20109;-75
2021/03/13 01:41:43;;;;;;;3.50;0.70;;;;;;;5.60;72.06;99447.75;4985110;28;20038;-75
2021/03/13 01:44:08;;;;;;;3.90;1.00;;;;;;;5.64;71.87;99446.91;4994499;28;20133;-75
2021/03/13 01:46:33;;;;;;;3.42;0.70;;;;;;;5.68;71.23;99427.66;4978121;28;20524;-74
2021/03/13 01:48:59;;;;;;;7.35;1.95;;;;;;;5.67;71.05;99434.66;4993371;28;20050;-75
2021/03/13 01:51:29;;;;;;;4.03;1.45;;;;;;;5.77;71.28;99432.00;5000520;28;20058;-75
2021/03/13 01:54:00;;;;;;;5.03;1.27;;;;;;;5.81;71.01;99433.72;4994300;28;20031;-75
2021/03/13 01:56:30;;;;;;;4.50;1.40;;;;;;;5.87;70.61;99433.72;4984372;28;20035;-75
2021/03/13 01:58:56;;;;;;;5.20;1.00;;;;;;;5.88;70.70;99428.44;4994344;28;20307;-75
2021/03/13 02:01:31;;;;;;;3.45;1.20;;;;;;;5.91;70.51;99424.94;4984711;28;20113;-75
2021/03/13 02:03:58;;;;;;;4.78;1.00;;;;;;;5.87;70.32;99418.88;4987325;28;20117;-75
2021/03/13 02:06:24;;;;;;;4.97;1.20;;;;;;;5.86;70.62;99421.47;4984211;28;20026;-75
2021/03/13 02:08:58;;;;;;;3.80;1.20;;;;;;;5.90;70.27;99417.97;4984612;28;20057;-75
2021/03/13 02:11:39;;;;;;;3.60;1.10;;;;;;;5.83;70.42;99421.50;4984518;28;20030;-75
2021/03/13 02:14:23;;;;;;;5.15;1.30;;;;;;;5.87;70.28;99423.25;4993851;28;20030;-75
2021/03/13 02:17:21;;;;;;;6.18;1.20;;;;;;;5.86;69.74;99421.47;4975991;28;20127;-74
2021/03/13 02:20:29;;;;;;;4.32;0.80;;;;;;;5.81;69.65;99418.00;4982309;28;20041;-74
2021/03/13 02:23:04;;;;;;;2.92;0.77;;;;;;;5.81;69.60;99415.41;4993196;28;20034;-74
2021/03/13 02:26:20;;;;;;;6.13;1.65;;;;;;;5.74;70.06;99416.28;4982553;28;20035;-74
2021/03/13 02:29:43;;;;;;;3.47;1.20;;;;;;;5.71;69.92;99407.59;4992296;28;20416;-74
2021/03/13 02:32:25;;;;;;;4.30;1.30;;;;;;;5.71;69.62;99411.94;4968834;28;20042;-74
2021/03/13 02:34:58;;;;;;;4.88;0.93;;;;;;;5.73;69.39;99410.19;4984060;28;20034;-74
2021/03/13 02:37:27;;;;;;;4.70;1.30;;;;;;;5.72;69.54;99413.69;4983787;28;20488;-74
2021/03/13 02:39:56;;;;;;;3.05;0.95;;;;;;;5.71;68.96;99407.59;4984023;28;20046;-74
2021/03/13 02:42:25;;;;;;;2.58;0.70;;;;;;;5.62;69.61;99406.75;4983911;28;20034;-74
2021/03/13 02:44:52;;;;;;;3.13;0.75;;;;;;;5.59;69.00;99409.41;4984022;28;20037;-74
2021/03/13 02:47:25;;;;;;;2.88;0.77;;;;;;;5.56;69.35;99412.03;4983732;28;20037;-74
2021/03/13 02:49:58;;;;;;;2.67;0.60;;;;;;;5.54;68.88;99401.56;5000093;28;20037;-74
2021/03/13 02:52:34;;;;;;;3.15;0.70;;;;;;;5.54;68.96;99392.84;4983846;28;20408;-74
2021/03/13 02:55:06;;;;;;;3.08;1.27;;;;;;;5.53;69.11;99399.81;4983550;28;20034;-74
2021/03/13 02:57:34;;;;;;;5.15;0.80;;;;;;;5.52;69.06;99400.69;4980391;28;20056;-74
2021/03/13 03:00:01;;;;;;;0.82;0.40;;;;;;;5.49;69.04;99396.31;4996572;28;20117;-75
2021/03/13 03:02:28;;;;;;;0.82;0.30;;;;;;;5.51;68.65;99398.94;4999186;28;20034;-75
2021/03/13 03:04:56;;;;;;;2.85;0.30;;;;;;;5.44;68.72;99392.00;4992908;28;20045;-75
2021/03/13 03:07:26;;;;;;;1.95;0.20;;;;;;;5.45;68.70;99401.59;4999830;28;20093;-75
2021/03/13 03:09:54;;;;;;;3.13;0.98;;;;;;;5.42;69.09;99394.63;4983462;28;20085;-73
2021/03/13 03:12:22;;;;;;;1.75;0.40;;;;;;;5.39;69.25;99402.47;4999787;28;20037;-73
2021/03/13 03:14:52;;;;;;;3.05;0.70;;;;;;;5.36;68.91;99399.00;4983368;28;20034;-73
2021/03/13 03:17:19;;;;;;;1.50;0.40;;;;;;;5.32;69.50;99394.63;4982923;28;20532;-73
2021/03/13 03:19:47;;;;;;;2.55;0.70;;;;;;;5.28;69.39;99402.50;4983376;28;20050;-72
2021/03/13 03:22:15;;;;;;;3.35;1.00;;;;;;;5.30;69.58;99393.78;4983306;28;20026;-73
2021/03/13 03:24:44;;;;;;;1.92;0.70;;;;;;;5.30;69.41;99405.13;4967627;28;20081;-73
2021/03/13 03:27:10;;;;;;;1.13;0.38;;;;;;;5.28;69.20;99397.28;4982803;28;20034;-73
2021/03/13 03:29:40;;;;;;;1.45;0.63;;;;;;;5.23;69.57;99399.03;4983018;28;20108;-73
2021/03/13 03:32:08;;;;;;;2.30;0.52;;;;;;;5.26;69.07;99391.16;4983030;28;20034;-73
2021/03/13 03:34:34;;;;;;;1.27;0.47;;;;;;;5.22;69.50;99385.97;4979720;28;20089;-72
2021/03/13 03:37:01;;;;;;;1.77;0.50;;;;;;;5.19;69.83;99392.09;4979045;28;20497;-72
2021/03/13 03:39:27;;;;;;;1.98;0.50;;;;;;;5.14;69.91;99396.44;4981938;28;20085;-72
2021/03/13 03:41:58;;;;;;;2.40;0.50;;;;;;;5.15;69.52;99395.56;4982910;28;20038;-72
2021/03/13 03:44:27;;;;;;;1.40;0.60;;;;;;;5.09;70.04;99390.34;4999118;28;20066;-72
2021/03/13 03:47:05;;;;;;;2.28;0.57;;;;;;;5.15;69.69;99400.78;4982672;28;20076;-72
2021/03/13 03:49:34;;;;;;;3.53;0.70;;;;;;;5.12;70.03;99394.72;4979491;28;20035;-72
2021/03/13 03:52:14;;;;;;;2.15;0.60;;;;;;;5.11;70.06;99391.22;4996370;28;20034;-72
2021/03/13 03:54:41;;;;;;;1.48;0.50;;;;;;;5.15;70.12;99400.78;4982595;28;20038;-73
2021/03/13 03:57:08;;;;;;;3.05;0.50;;;;;;;5.27;69.97;99399.91;4991878;28;20038;-73
2021/03/13 03:59:35;;;;;;;2.40;0.77;;;;;;;5.38;69.13;99386.78;4976047;28;20034;-73
2021/03/13 04:02:01;;;;;;;1.83;0.60;;;;;;;5.45;69.05;99380.66;4992011;28;20038;-73
2021/03/13 04:04:29;;;;;;;3.95;0.60;;;;;;;5.46;69.32;99390.25;4991977;28;20045;-73
2021/03/13 04:06:57;;;;;;;3.22;0.80;;;;;;;5.37;69.36;99387.66;4982377;28;20038;-72
2021/03/13 04:09:25;;;;;;;2.25;0.50;;;;;;;5.39;69.43;99394.63;4990227;28;20100;-72
2021/03/13 04:11:51;;;;;;;2.38;0.82;;;;;;;5.44;69.12;99385.00;4991966;28;20543;-72
2021/03/13 04:14:17;;;;;;;3.58;0.82;;;;;;;5.40;69.29;99375.44;4991878;28;20069;-72
2021/03/13 04:16:43;;;;;;;2.28;0.77;;;;;;;5.36;69.33;99383.31;4991512;28;20038;-72
2021/03/13 04:19:10;;;;;;;3.40;0.93;;;;;;;5.29;69.65;99387.66;4991831;28;20049;-72
2021/03/13 04:21:36;;;;;;;2.50;0.73;;;;;;;5.27;69.44;99382.47;4976222;28;20046;-72
2021/03/13 04:24:02;;;;;;;2.45;0.63;;;;;;;5.24;69.67;99377.25;4991807;28;20048;-72
2021/03/13 04:26:30;;;;;;;2.13;0.75;;;;;;;5.20;69.69;99383.34;4991504;28;20030;-72
2021/03/13 04:28:55;;;;;;;2.20;0.70;;;;;;;5.20;69.80;99378.13;4990508;28;20120;-72
2021/03/13 04:31:26;;;;;;;3.17;0.50;;;;;;;5.27;69.62;99377.22;4991742;28;20404;-72
2021/03/13 04:33:52;;;;;;;1.90;0.80;;;;;;;5.33;69.69;99380.69;4991815;28;20070;-72
2021/03/13 04:36:18;;;;;;;3.03;0.60;;;;;;;5.29;69.44;99377.19;4991097;28;20481;-72
2021/03/13 04:38:44;;;;;;;2.45;0.75;;;;;;;5.23;69.86;99369.38;4991712;28;20389;-72
2021/03/13 04:41:11;;;;;;;3.15;0.90;;;;;;;5.14;70.14;99367.69;4991579;28;20034;-73
2021/03/13 04:43:38;;;;;;;1.80;0.75;;;;;;;5.10;70.15;99362.47;4991649;28;20068;-73
2021/03/13 04:46:04;;;;;;;2.08;0.70;;;;;;;5.01;70.40;99376.44;4982059;28;20037;-72
2021/03/13 04:48:32;;;;;;;4.20;0.80;;;;;;;4.95;70.19;99365.97;4985666;28;20038;-71
2021/03/13 04:51:05;;;;;;;1.98;0.65;;;;;;;4.82;70.69;99366.00;4987259;28;20069;-72
2021/03/13 04:53:30;;;;;;;1.90;1.05;;;;;;;4.73;70.90;99360.78;4995272;28;20053;-72
2021/03/13 04:55:56;;;;;;;2.70;1.40;;;;;;;4.67;71.61;99358.19;4994867;28;20030;-73
2021/03/13 04:58:21;;;;;;;1.77;0.90;;;;;;;4.57;72.23;99354.69;4995217;28;20505;-72
2021/03/13 05:00:47;;;;;;;4.25;1.27;;;;;;;4.54;71.96;99352.09;4995130;28;20045;-72
2021/03/13 05:03:13;;;;;;;4.57;1.58;;;;;;;4.49;72.08;99355.59;4995143;28;20034;-73
2021/03/13 05:05:39;;;;;;;3.05;1.00;;;;;;;4.46;72.43;99355.59;4994797;28;20477;-72
2021/03/13 05:08:05;;;;;;;5.47;1.77;;;;;;;4.44;72.31;99349.50;4995003;28;20071;-72
2021/03/13 05:10:30;;;;;;;2.17;0.80;;;;;;;4.38;72.36;99346.00;4994795;28;20133;-71
2021/03/13 05:12:55;;;;;;;3.22;1.20;;;;;;;4.36;72.46;99350.34;4994957;28;20046;-72
2021/03/13 05:15:22;;;;;;;3.63;1.00;;;;;;;4.34;72.36;99344.25;4985219;28;20030;-72
2021/03/13 05:17:48;;;;;;;3.72;1.00;;;;;;;4.31;72.47;99351.22;4994771;28;20401;-72
2021/03/13 05:20:13;;;;;;;4.47;1.30;;;;;;;4.26;72.88;99346.00;4994595;28;20049;-72
2021/03/13 05:22:39;;;;;;;2.33;1.05;;;;;;;4.25;73.30;99340.78;4994724;28;20034;-72
2021/03/13 05:25:05;;;;;;;3.28;1.20;;;;;;;4.25;73.25;99344.25;4994395;28;20065;-72
2021/03/13 05:27:31;;;;;;;3.08;1.30;;;;;;;4.27;72.74;99339.91;4994490;28;20038;-72
2021/03/13 05:29:57;;;;;;;5.28;2.28;;;;;;;4.27;72.81;99328.56;4994555;28;20464;-72
2021/03/13 05:32:23;;;;;;;7.88;2.40;;;;;;;4.26;73.42;99335.56;4994605;28;20030;-74
2021/03/13 05:34:49;;;;;;;5.40;2.13;;;;;;;4.33;73.06;99334.69;4994369;28;20124;-73
2021/03/13 05:37:15;;;;;;;6.70;1.80;;;;;;;4.37;72.82;99331.19;4984806;28;20045;-73
2021/03/13 05:39:40;;;;;;;5.10;1.40;;;;;;;4.43;72.85;99339.88;4994349;28;20038;-72
2021/03/13 05:42:06;;;;;;;12.13;3.70;;;;;;;4.50;72.60;99332.06;4994393;28;20052;-71
2021/03/13 05:44:33;;;;;;;3.75;1.33;;;;;;;4.63;72.57;99335.53;4994315;28;20034;-72
2021/03/13 05:46:59;;;;;;;3.60;1.60;;;;;;;4.76;72.16;99321.56;4993914;28;20022;-72
2021/03/13 05:49:26;;;;;;;3.08;1.60;;;;;;;4.94;71.70;99319.78;4994144;28;20034;-72
2021/03/13 05:51:54;;;;;;;13.23;3.60;;;;;;;5.13;71.59;99312.75;4994152;28;20397;-72
2021/03/13 05:54:19;;;;;;;5.30;1.48;;;;;;;5.29;71.14;99309.19;4979820;28;20118;-72
2021/03/13 05:56:45;;;;;;;2.75;1.25;;;;;;;5.45;70.91;99307.41;4984640;28;20121;-72
2021/03/13 05:59:11;;;;;;;3.20;1.30;;;;;;;5.60;70.45;99301.19;4986378;28;20034;-72
2021/03/13 06:01:37;;;;;;;3.45;1.30;;;;;;;5.70;69.56;99300.25;4992993;28;20121;-72
2021/03/13 06:04:03;;;;;;;3.53;1.65;;;;;;;5.83;69.89;99295.81;4993587;28;20125;-72
2021/03/13 06:06:31;;;;;;;4.05;1.52;;;;;;;5.93;69.27;99297.50;4993615;28;20034;-72
2021/03/13 06:08:56;;;;;;;3.92;1.60;;;;;;;5.99;68.89;99287.00;4993631;28;20042;-72
2021/03/13 06:11:23;;;;;;;4.43;2.10;;;;;;;6.09;68.92;99280.81;4993750;28;20048;-72
2021/03/13 06:13:49;;;;;;;3.95;1.65;;;;;;;6.23;68.64;99279.81;4982497;28;20035;-72
2021/03/13 06:16:15;;;;;;;3.55;1.55;;;;;;;6.24;68.01;99276.34;4978535;28;20070;-71
2021/03/13 06:18:51;;;;;;;4.03;2.03;;;;;;;6.36;67.94;99276.22;4989447;28;20065;-72
2021/03/13 06:21:30;;;;;;;5.72;1.98;;;;;;;6.39;67.44;99273.56;4992363;28;20038;-72
2021/03/13 06:24:32;;;;;;;4.43;2.25;;;;;;;6.42;67.34;99270.94;4993544;28;20041;-72
2021/03/13 06:26:59;;;;;;;4.00;1.63;;;;;;;6.47;67.62;99269.13;4983435;28;20045;-72
2021/03/13 06:29:26;;;;;;;3.13;1.45;;;;;;;6.52;67.76;99267.34;4993448;28;20489;-72
2021/03/13 06:32:11;;;;;;;3.15;1.70;;;;;;;6.53;67.20;99262.97;4993471;28;20477;-72
2021/03/13 06:34:38;;;;;;;4.40;1.67;;;;;;;6.59;67.01;99261.13;4978074;28;20045;-72
2021/03/13 06:37:25;;;;;;;3.72;1.60;;;;;;;6.68;66.47;99261.91;4979753;28;20123;-72
2021/03/13 06:39:52;;;;;;;4.38;1.67;;;;;;;6.69;66.36;99263.66;4973596;28;20057;-72
2021/03/13 06:42:22;;;;;;;3.03;1.33;;;;;;;6.75;66.34;99264.47;4980260;28;20118;-72
2021/03/13 06:44:57;;;;;;;2.50;1.30;;;;;;;6.76;66.80;99258.34;4975346;28;20048;-72
2021/03/13 06:47:33;;;;;;;5.38;1.42;;;;;;;6.83;66.53;99261.75;4980385;28;20043;-72
2021/03/13 06:50:10;;;;;;;3.33;1.42;;;;;;;6.88;66.41;99254.69;4988497;28;20093;-71
2021/03/13 06:52:36;;;;;;;3.72;1.33;;;;;;;6.93;66.40;99252.03;4977368;28;20134;-72
2021/03/13 06:55:01;;;;;;;3.97;1.23;;;;;;;6.92;66.49;99256.41;4992684;28;20045;-72
2021/03/13 06:57:27;;;;;;;3.25;1.23;;;;;;;7.01;66.75;99260.69;4992847;28;20125;-72
2021/03/13 06:59:56;;;;;;;3.58;1.10;;;;;;;7.02;67.33;99254.53;4992840;28;20046;-72
2021/03/13 07:02:21;;;;;;;1.90;1.00;;;;;;;7.03;66.79;99248.41;4992688;28;20042;-72
2021/03/13 07:04:47;;;;;;;2.58;1.02;;;;;;;7.06;67.50;99252.75;4992702;28;20104;-71
2021/03/13 07:07:29;;;;;;;3.47;1.20;;;;;;;7.05;68.29;99251.91;4992408;28;20048;-71
2021/03/13 07:09:59;;;;;;;2.72;1.55;;;;;;;7.07;68.67;99238.75;4992480;28;20026;-72
2021/03/13 07:12:42;;;;;;;3.65;1.02;;;;;;;7.06;69.09;99237.88;4992347;28;20034;-72
2021/03/13 07:15:29;;;;;;;4.78;1.40;;;;;;;7.05;69.79;99235.25;4992272;28;20045;-72
2021/03/13 07:17:58;;;;;;;3.47;1.20;;;;;;;6.96;70.59;99231.88;4974463;28;20121;-71
2021/03/13 07:20:25;;;;;;;2.95;0.98;;;;;;;6.95;70.61;99229.28;4998205;28;20133;-71
2021/03/13 07:22:53;;;;;;;3.90;0.90;;;;;;;6.97;70.96;99223.13;4992494;28;20069;-72
2021/03/13 07:25:23;;;;;;;4.70;1.00;;;;;;;6.95;71.13;99224.91;4992188;28;20037;-72
2021/03/13 07:27:54;;;;;;;2.50;0.90;;;;;;;7.02;71.12;99216.06;4992225;28;20109;-71
2021/03/13 07:30:20;;;;;;;3.17;0.93;;;;;;;7.10;71.02;99209.84;4992378;28;20049;-72
2021/03/13 07:33:08;;;;;;;2.03;1.00;;;;;;;7.18;70.95;99208.88;4992253;28;20027;-72
2021/03/13 07:35:36;;;;;;;3.20;0.95;;;;;;;7.19;70.93;99201.84;4991731;28;20038;-71
2021/03/13 07:38:04;;;;;;;2.95;0.98;;;;;;;7.30;70.88;99194.69;4988196;28;20501;-71
2021/03/13 07:40:34;;;;;;;2.78;1.10;;;;;;;7.34;71.09;99183.28;4955067;28;20026;-72
2021/03/13 07:43:00;;;;;;;2.13;0.90;;;;;;;7.44;70.96;99182.25;4970046;28;20117;-71
2021/03/13 07:45:26;;;;;;;2.65;0.80;;;;;;;7.50;70.44;99180.41;4975177;28;20466;-72
2021/03/13 07:47:52;;;;;;;2.67;0.80;;;;;;;7.52;69.36;99179.50;4973852;28;20033;-72
2021/03/13 07:50:18;;;;;;;2.58;1.00;;;;;;;7.58;69.14;99170.66;4972532;28;20050;-72
2021/03/13 07:52:49;;;;;;;1.67;0.73;;;;;;;7.63;69.53;99174.09;4992075;28;20442;-73
2021/03/13 07:55:16;;;;;;;1.63;0.60;;;;;;;7.71;68.96;99169.56;4991816;28;20485;-74
2021/03/13 07:57:44;;;;;;;2.42;0.73;;;;;;;7.71;68.37;99163.47;4982693;28;20519;-72
2021/03/13 08:00:10;;;;;;;1.73;0.57;;;;;;;7.81;67.89;99176.41;4991934;28;20044;-72
2021/03/13 08:02:40;;;;;;;3.67;0.70;;;;;;;7.88;67.10;99157.00;4976649;28;20047;-71
2021/03/13 08:05:16;;;;;;;1.50;0.60;;;;;;;8.00;66.81;99166.44;4975950;28;20043;-71
2021/03/13 08:08:06;;;;;;;3.15;0.80;;;;;;;8.00;66.73;99155.94;4977082;28;20057;-72
2021/03/13 08:10:49;;;;;;;2.50;1.13;;;;;;;7.89;65.97;99147.38;4983208;28;20485;-72
2021/03/13 08:13:27;;;;;;;1.17;0.30;;;;;;;8.09;65.39;99149.66;4991753;28;20045;-72
2021/03/13 08:16:02;;;;;;;0.80;0.35;;;;;;;8.21;65.15;99141.53;4991393;28;20113;-72
2021/03/13 08:18:44;;;;;;;1.98;0.50;;;;;;;8.30;63.75;99140.50;4991651;28;20476;-72
2021/03/13 08:21:18;;;;;;;3.60;0.50;;;;;;;8.47;63.97;99129.69;4989255;28;20038;-72
2021/03/13 08:23:50;;;;;;;0.90;0.45;;;;;;;8.64;63.06;99131.97;4980617;28;20176;-71
2021/03/13 08:26:17;;;;;;;0.73;0.30;;;;;;;8.74;63.02;99118.59;4995482;28;20045;-71
2021/03/13 08:28:46;;;;;;;0.50;0.20;;;;;;;8.78;61.96;99112.38;4995707;28;20115;-72
2021/03/13 08:31:23;;;;;;;1.77;0.43;;;;;;;8.93;62.24;99105.03;4995511;28;20157;-72
2021/03/13 08:33:49;;;;;;;0.82;0.30;;;;;;;9.00;62.38;99093.47;4995597;28;20046;-72
2021/03/13 08:36:16;;;;;;;1.13;0.40;;;;;;;9.09;61.50;99095.03;4994995;28;20039;-72
2021/03/13 08:39:04;;;;;;;0.70;0.30;;;;;;;9.11;60.40;99094.09;4995580;28;20084;-72
2021/03/13 08:44:07;;;;;;;2.38;0.35;;;;;;;9.33;60.65;99096.25;4995415;28;20126;-72
2021/03/13 08:46:50;;;;;;;0.90;0.30;;;;;;;9.41;59.98;99089.88;4994887;28;20516;-72
2021/03/13 08:49:23;;;;;;;0.82;0.40;;;;;;;9.44;59.85;99063.47;4995319;28;20038;-72
2021/03/13 08:51:49;;;;;;;0.70;0.20;;;;;;;9.40;59.77;99055.69;4986167;28;20559;-72
2021/03/13 08:54:39;;;;;;;1.00;0.32;;;;;;;9.35;59.64;99047.03;4995244;28;20046;-72
2021/03/13 08:57:10;;;;;;;0.95;0.30;;;;;;;9.32;59.04;99041.84;4994703;28;20034;-72
2021/03/13 08:59:37;;;;;;;0.90;0.20;;;;;;;9.32;59.19;99042.69;4979316;28;20097;-72
2021/03/13 09:02:04;;;;;;;0.75;0.22;;;;;;;9.34;58.47;99035.63;4995070;28;20054;-72
2021/03/13 09:04:32;;;;;;;1.42;0.40;;;;;;;9.34;59.08;99029.50;4994990;28;20516;-72
2021/03/13 09:06:58;;;;;;;1.75;0.35;;;;;;;9.48;58.90;99027.38;4994679;28;20030;-72
2021/03/13 09:09:26;;;;;;;0.30;0.20;;;;;;;9.35;58.53;99015.44;4994876;28;20034;-72
2021/03/13 09:11:56;;;;;;;0.57;0.30;;;;;;;9.47;59.13;99020.41;4994915;28;20084;-72
2021/03/13 09:14:22;;;;;;;1.08;0.20;;;;;;;9.50;58.43;99011.53;4994826;28;20405;-72
2021/03/13 09:16:48;;;;;;;0.35;0.20;;;;;;;9.57;58.09;98995.53;4994457;28;20442;-72
2021/03/13 09:19:14;;;;;;;0.30;0.20;;;;;;;9.65;57.63;98998.84;4994677;28;20038;-72
2021/03/13 09:21:47;;;;;;;0.57;0.20;;;;;;;9.69;57.68;99001.38;4994706;28;20128;-72
2021/03/13 09:24:15;;;;;;;0.93;0.40;;;;;;;9.68;57.56;98999.66;4995005;28;20046;-72
2021/03/13 09:26:41;;;;;;;1.08;0.30;;;;;;;9.74;57.47;98997.72;4994337;28;20069;-73
2021/03/13 09:29:07;;;;;;;1.27;0.28;;;;;;;9.78;57.72;98998.50;4994517;28;20100;-72
2021/03/13 09:31:33;;;;;;;0.85;0.22;;;;;;;9.84;57.65;98993.06;4969290;28;20038;-73
2021/03/13 09:34:19;;;;;;;1.88;0.32;;;;;;;9.92;56.94;98979.69;4993918;28;20413;-72
2021/03/13 09:36:46;;;;;;;1.23;0.40;;;;;;;9.98;56.47;98969.84;4980564;28;20034;-72
2021/03/13 09:39:12;;;;;;;1.33;0.57;;;;;;;9.94;56.69;98968.19;4994408;28;20044;-72
2021/03/13 09:41:38;;;;;;;3.03;0.57;;;;;;;10.09;56.80;98956.34;4994470;28;20205;-73
2021/03/13 09:44:04;;;;;;;0.60;0.30;;;;;;;10.06;56.49;98951.13;4994382;28;20790;-73
2021/03/13 09:46:30;;;;;;;4.07;1.27;;;;;;;9.96;57.50;98961.09;4993988;28;20110;-75
2021/03/13 09:48:57;;;;;;;1.48;0.70;;;;;;;10.10;57.06;98951.00;4994091;28;20041;-71
2021/03/13 09:51:23;;;;;;;2.35;0.60;;;;;;;10.14;56.90;98953.56;4994160;28;20561;-75
2021/03/13 09:53:48;;;;;;;4.18;0.80;;;;;;;10.08;57.09;98939.63;4994301;28;20111;-73
2021/03/13 09:56:14;;;;;;;1.30;0.40;;;;;;;10.12;56.68;98935.16;4993743;28;20473;-73
2021/03/13 09:58:39;;;;;;;3.92;0.73;;;;;;;10.16;57.40;98938.56;4994021;28;20473;-73
2021/03/13 10:01:04;;;;;;;2.47;0.65;;;;;;;10.16;57.38;98930.66;4993952;28;20037;-74
2021/03/13 10:03:31;;;;;;;1.00;0.50;;;;;;;10.15;56.98;98924.53;4984631;28;20045;-73
2021/03/13 10:05:57;;;;;;;2.42;0.70;;;;;;;10.11;57.06;98928.13;4993671;28;20027;-74
2021/03/13 10:08:35;;;;;;;1.30;0.60;;;;;;;10.18;57.57;98919.16;4993765;28;20559;-73
2021/03/13 10:11:02;;;;;;;2.63;0.80;;;;;;;10.24;57.60;98904.91;4993824;28;20121;-72
2021/03/13 10:13:29;;;;;;;3.03;1.17;;;;;;;10.14;56.89;98911.38;4993632;28;20045;-72
2021/03/13 10:15:54;;;;;;;2.35;0.60;;;;;;;10.08;56.93;98896.59;4993322;28;20041;-72
2021/03/13 10:18:21;;;;;;;2.25;0.65;;;;;;;10.27;57.14;98891.63;4993522;28;20405;-72
2021/03/13 10:20:48;;;;;;;2.28;0.80;;;;;;;10.22;57.50;98898.84;4993648;28;20041;-72
2021/03/13 10:23:15;;;;;;;2.20;0.57;;;;;;;10.18;56.34;98891.94;4988395;28;20049;-72
2021/03/13 10:25:43;;;;;;;1.73;0.60;;;;;;;10.20;57.08;98884.84;4979690;28;20105;-73
2021/03/13 10:28:13;;;;;;;2.05;0.63;;;;;;;10.14;57.02;98875.34;4977984;28;20026;-73
2021/03/13 10:30:41;;;;;;;2.80;0.90;;;;;;;10.06;57.04;98866.78;4976006;28;20382;-72
2021/03/13 10:33:07;;;;;;;3.15;1.30;;;;;;;10.13;57.43;98865.69;4976710;28;20035;-72
2021/03/13 10:35:34;;;;;;;2.95;0.80;;;;;;;10.16;56.68;98870.88;4978577;28;20034;-72
2021/03/13 10:38:02;;;;;;;2.20;0.60;;;;;;;10.06;57.12;98856.25;4977691;28;20050;-72
2021/03/13 10:40:36;;;;;;;4.00;0.75;;;;;;;10.13;56.78;98856.94;4980111;28;20461;-72
2021/03/13 10:43:17;;;;;;;2.08;0.70;;;;;;;10.23;56.05;98842.56;4991008;28;20034;-72
2021/03/13 10:46:08;;;;;;;2.60;0.68;;;;;;;10.23;56.68;98832.88;4975137;28;20081;-72
2021/03/13 10:48:35;;;;;;;1.70;0.60;;;;;;;10.28;56.21;98820.44;4967649;28;20042;-72
2021/03/13 10:51:03;;;;;;;5.18;0.70;;;;;;;10.29;55.60;98826.56;4977712;28;20034;-72
2021/03/13 10:53:36;;;;;;;2.15;0.43;;;;;;;10.29;55.02;98824.78;4978773;28;20034;-72
2021/03/13 10:56:14;;;;;;;2.50;0.75;;;;;;;10.32;55.45;98818.53;4972363;28;20071;-72
2021/03/13 10:58:48;;;;;;;5.72;0.80;;;;;;;10.50;55.17;98823.22;4975745;28;20046;-72
2021/03/13 11:01:13;;;;;;;2.03;0.85;;;;;;;10.53;54.80;98811.72;4976690;28;20039;-72
2021/03/13 11:03:42;;;;;;;2.20;0.70;;;;;;;10.79;55.00;98800.28;4983876;28;20127;-73
2021/03/13 11:06:08;;;;;;;3.70;1.25;;;;;;;10.93;53.96;98795.38;4976829;28;20385;-72
2021/03/13 11:08:34;;;;;;;1.50;0.40;;;;;;;11.03;53.43;98792.41;4976872;28;20034;-72
2021/03/13 11:10:59;;;;;;;2.25;0.75;;;;;;;11.21;53.33;98780.31;4938989;28;20023;-72
2021/03/13 11:13:25;;;;;;;1.63;0.50;;;;;;;11.30;52.52;98780.00;4976231;28;20026;-72
2021/03/13 11:15:51;;;;;;;2.70;0.60;;;;;;;11.31;52.50;98774.63;4992392;28;20456;-72
2021/03/13 11:18:16;;;;;;;1.80;0.60;;;;;;;11.31;52.42;98768.50;4992648;28;20040;-72
2021/03/13 11:20:43;;;;;;;2.58;0.60;;;;;;;11.19;52.23;98770.69;4992516;28;20451;-72
2021/03/13 11:23:08;;;;;;;2.80;0.95;;;;;;;11.17;52.71;98764.59;4992542;28;20041;-72
2021/03/13 11:25:34;;;;;;;2.85;0.80;;;;;;;11.21;52.49;98765.34;4991082;28;20034;-72
2021/03/13 11:28:04;;;;;;;2.28;0.70;;;;;;;11.26;52.18;98763.38;4992457;28;20034;-72
2021/03/13 11:30:31;;;;;;;2.30;0.55;;;;;;;11.28;52.13;98755.41;4992430;28;20077;-72
2021/03/13 11:32:56;;;;;;;3.53;0.80;;;;;;;11.20;51.66;98766.25;4992482;28;20096;-72
2021/03/13 11:35:23;;;;;;;2.97;0.73;;;;;;;11.22;51.74;98760.94;4992063;28;20125;-72
2021/03/13 11:37:49;;;;;;;1.75;0.40;;;;;;;11.26;51.02;98760.75;4983008;28;20419;-72
2021/03/13 11:40:16;;;;;;;2.33;0.80;;;;;;;11.43;51.29;98740.78;4992281;28;20556;-72
2021/03/13 11:42:42;;;;;;;2.10;0.65;;;;;;;11.45;51.05;98728.34;4992313;28;20041;-72
2021/03/13 11:45:10;;;;;;;3.10;0.70;;;;;;;11.55;50.56;98733.25;4992038;28;20389;-72
2021/03/13 11:47:37;;;;;;;4.30;0.93;;;;;;;11.62;49.91;98732.06;4976367;28;20412;-72
2021/03/13 11:50:11;;;;;;;3.78;0.77;;;;;;;11.69;50.16;98729.22;4992141;28;20030;-72
2021/03/13 11:52:38;;;;;;;3.30;0.88;;;;;;;11.90;50.41;98714.31;4977124;28;20476;-71